Time;durP1;ratioP1;P1;durP2;ratioP2;P2;SDS_P1;SDS_P2;PMS_P1;PMS_P2;Temp;Humidity;BMP_temperature;BMP_pressure;BME280_temperature;BME280_humidity;BME280_pressure;Samples;Min_cycle;Max_cycle;Signal;HPM_P1;HPM_P2
2022/06/14 00:01:22;;;;;;;;;;;10.70;99.90;;;;;;4990079;28;19956;-77
2022/06/14 00:03:49;;;;;;;;;;;10.70;99.90;;;;;;5020401;28;20386;-78
2022/06/14 00:06:18;;;;;;;;;;;10.70;99.90;;;;;;5018373;28;20075;-80
2022/06/14 00:08:44;;;;;;;;;;;10.80;99.90;;;;;;5027251;28;20004;-77
2022/06/14 00:11:17;;;;;;;;;;;10.80;99.90;;;;;;5027458;28;19999;-78
2022/06/14 00:13:44;;;;;;;;;;;10.90;99.90;;;;;;5026458;28;20242;-79
2022/06/14 00:16:10;;;;;;;;;;;10.90;99.90;;;;;;5020428;28;19967;-77
2022/06/14 00:18:36;;;;;;;;;;;11.00;99.90;;;;;;5051832;28;19920;-79
2022/06/14 00:21:08;;;;;;;;;;;11.00;99.90;;;;;;5005981;28;20059;-78
2022/06/14 00:23:40;;;;;;;;;;;11.00;99.90;;;;;;5017118;28;20397;-79
2022/06/14 00:26:12;;;;;;;;;;;11.10;99.90;;;;;;5011667;28;20039;-80
2022/06/14 00:28:39;;;;;;;;;;;11.10;99.90;;;;;;5044361;28;19921;-78
2022/06/14 00:31:06;;;;;;;;;;;11.10;99.90;;;;;;5026348;28;19921;-78
2022/06/14 00:33:32;;;;;;;;;;;11.10;99.90;;;;;;5002997;28;19931;-79
2022/06/14 00:35:58;;;;;;;;;;;11.20;99.90;;;;;;5034050;28;20003;-78
2022/06/14 00:38:24;;;;;;;;;;;11.20;99.90;;;;;;5016874;28;20428;-78
2022/06/14 00:40:51;;;;;;;;;;;11.30;99.90;;;;;;5015248;28;20008;-78
2022/06/14 00:43:17;;;;;;;;;;;11.30;99.90;;;;;;5014744;28;19927;-80
2022/06/14 00:45:43;;;;;;;;;;;11.40;99.90;;;;;;5014160;28;19917;-77
2022/06/14 00:48:11;;;;;;;;;;;11.40;99.90;;;;;;5013845;28;19924;-80
2022/06/14 00:50:40;;;;;;;;;;;11.40;99.90;;;;;;4997735;28;19921;-79
2022/06/14 00:53:12;;;;;;;;;;;11.50;99.90;;;;;;5031772;28;19975;-78
2022/06/14 00:55:40;;;;;;;;;;;11.50;99.90;;;;;;5014077;28;19917;-79
2022/06/14 00:58:17;;;;;;;;;;;11.50;99.90;;;;;;5049886;28;20361;-80
2022/06/14 01:01:10;;;;;;;;;;;11.50;99.90;;;;;;5011414;28;20256;-80
2022/06/14 01:03:43;;;;;;;;;;;11.40;99.90;;;;;;4990062;28;19988;-78
2022/06/14 01:06:17;;;;;;;;;;;11.40;99.90;;;;;;5051910;28;19995;-78
2022/06/14 01:08:48;;;;;;;;;;;11.30;99.90;;;;;;5038121;28;20293;-77
2022/06/14 01:11:15;;;;;;;;;;;11.20;99.90;;;;;;5030741;28;20377;-78
2022/06/14 01:13:41;;;;;;;;;;;11.10;99.90;;;;;;5057406;28;20350;-80
2022/06/14 01:16:09;;;;;;;;;;;11.40;99.90;;;;;;5070317;28;19920;-79
2022/06/14 01:18:36;;;;;;;;;;;11.10;99.90;;;;;;5047470;28;19917;-78
2022/06/14 01:21:01;;;;;;;;;;;10.90;99.90;;;;;;5049301;28;19917;-77
2022/06/14 01:23:28;;;;;;;;;;;10.90;99.90;;;;;;5035566;28;19921;-78
2022/06/14 01:26:01;;;;;;;;;;;10.80;99.90;;;;;;5050330;28;20430;-78
2022/06/14 01:28:27;;;;;;;;;;;10.70;99.90;;;;;;5062998;28;20290;-79
2022/06/14 01:30:53;;;;;;;;;;;10.70;99.90;;;;;;5025665;28;19969;-78
2022/06/14 01:33:21;;;;;;;;;;;10.70;99.90;;;;;;5036484;28;19920;-78
2022/06/14 01:35:50;;;;;;;;;;;10.60;99.90;;;;;;5037042;28;19921;-80
2022/06/14 01:38:16;;;;;;;;;;;10.60;99.90;;;;;;5029517;28;19917;-78
2022/06/14 01:40:57;;;;;;;;;;;10.60;99.90;;;;;;5035724;28;20324;-78
2022/06/14 01:43:29;;;;;;;;;;;10.50;99.90;;;;;;5020565;28;19921;-78
2022/06/14 01:45:54;;;;;;;;;;;10.50;99.90;;;;;;5038877;28;19983;-78
2022/06/14 01:48:20;;;;;;;;;;;10.40;99.90;;;;;;5016562;28;19948;-78
2022/06/14 01:54:18;;;;;;;;;;;10.30;99.90;;;;;;5027377;28;19968;-78
2022/06/14 01:57:02;;;;;;;;;;;10.20;99.90;;;;;;5013257;28;19940;-79
2022/06/14 01:59:34;;;;;;;;;;;10.10;99.90;;;;;;5026461;28;19928;-78
2022/06/14 02:02:07;;;;;;;;;;;10.10;99.90;;;;;;5003814;28;19917;-78
2022/06/14 02:04:39;;;;;;;;;;;10.10;99.90;;;;;;5019278;28;20305;-78
2022/06/14 02:07:05;;;;;;;;;;;10.10;99.90;;;;;;5022255;28;20259;-78
2022/06/14 02:09:36;;;;;;;;;;;10.00;99.90;;;;;;5065697;28;19921;-76
2022/06/14 02:12:03;;;;;;;;;;;10.10;99.90;;;;;;4996325;28;20260;-77
2022/06/14 02:14:29;;;;;;;;;;;10.10;99.90;;;;;;5012891;28;19918;-79
2022/06/14 02:17:01;;;;;;;;;;;10.00;99.90;;;;;;5017118;28;19917;-78
2022/06/14 02:19:31;;;;;;;;;;;10.00;99.90;;;;;;5020523;28;20382;-79
2022/06/14 02:22:01;;;;;;;;;;;10.10;99.90;;;;;;5014814;28;19943;-78
2022/06/14 02:24:26;;;;;;;;;;;10.10;99.90;;;;;;5005344;28;19921;-78
2022/06/14 02:27:15;;;;;;;;;;;10.00;99.90;;;;;;5014503;28;20004;-79
2022/06/14 02:29:47;;;;;;;;;;;10.00;99.90;;;;;;4948337;28;19918;-78
2022/06/14 02:32:21;;;;;;;;;;;10.00;99.90;;;;;;5000998;28;19960;-79
2022/06/14 02:34:48;;;;;;;;;;;9.90;99.90;;;;;;5031685;28;19921;-79
2022/06/14 02:37:16;;;;;;;;;;;9.90;99.90;;;;;;5032922;28;19924;-80
2022/06/14 02:39:49;;;;;;;;;;;9.90;99.90;;;;;;5024551;28;19917;-81
2022/06/14 02:42:20;;;;;;;;;;;9.90;99.90;;;;;;5035469;28;19917;-80
2022/06/14 02:45:08;;;;;;;;;;;9.90;99.90;;;;;;5031259;28;19917;-79
2022/06/14 02:47:37;;;;;;;;;;;9.90;99.90;;;;;;5000845;28;19925;-78
2022/06/14 02:50:10;;;;;;;;;;;9.80;99.90;;;;;;5013788;28;19917;-78
2022/06/14 02:52:38;;;;;;;;;;;9.80;99.90;;;;;;5013722;28;19924;-78
2022/06/14 02:55:09;;;;;;;;;;;9.70;99.90;;;;;;5032442;28;19921;-80
2022/06/14 02:57:34;;;;;;;;;;;9.80;99.90;;;;;;5015733;28;19943;-79
2022/06/14 03:00:04;;;;;;;;;;;9.80;99.90;;;;;;5034235;28;19917;-79
2022/06/14 03:02:33;;;;;;;;;;;9.80;99.90;;;;;;5009201;28;19925;-79
2022/06/14 03:05:11;;;;;;;;;;;9.80;99.90;;;;;;5030133;28;19917;-78
2022/06/14 03:07:49;;;;;;;;;;;9.80;99.90;;;;;;5026193;28;19971;-78
2022/06/14 03:10:15;;;;;;;;;;;9.70;99.90;;;;;;5029721;28;19921;-78
2022/06/14 03:12:46;;;;;;;;;;;9.80;99.90;;;;;;5015064;28;19917;-79
2022/06/14 03:15:12;;;;;;;;;;;9.80;99.90;;;;;;5065187;28;19943;-78
2022/06/14 03:17:56;;;;;;;;;;;9.80;99.90;;;;;;5035117;28;20366;-80
2022/06/14 03:20:46;;;;;;;;;;;9.80;99.90;;;;;;5029382;28;19971;-77
2022/06/14 03:23:38;;;;;;;;;;;9.90;99.90;;;;;;5015368;28;19920;-79
2022/06/14 03:26:15;;;;;;;;;;;9.90;99.90;;;;;;4995069;28;20015;-78
2022/06/14 03:29:07;;;;;;;;;;;9.90;99.90;;;;;;5014386;28;19921;-79
2022/06/14 03:31:36;;;;;;;;;;;9.90;99.90;;;;;;5009402;28;19928;-78
2022/06/14 03:34:05;;;;;;;;;;;10.00;99.90;;;;;;5025753;28;19924;-80
2022/06/14 03:36:31;;;;;;;;;;;10.00;99.90;;;;;;5024696;28;19971;-78
2022/06/14 03:39:01;;;;;;;;;;;10.00;99.90;;;;;;5017585;28;19920;-80
2022/06/14 03:41:29;;;;;;;;;;;10.00;99.90;;;;;;5022262;28;19976;-79
2022/06/14 03:43:58;;;;;;;;;;;10.10;99.90;;;;;;5000023;28;19967;-80
2022/06/14 03:46:36;;;;;;;;;;;10.10;99.90;;;;;;5021825;28;20043;-80
2022/06/14 03:49:08;;;;;;;;;;;10.10;99.90;;;;;;5008404;28;19921;-79
2022/06/14 03:51:52;;;;;;;;;;;10.10;99.90;;;;;;5050655;28;19920;-79
2022/06/14 03:54:18;;;;;;;;;;;10.20;99.90;;;;;;5017580;28;20380;-78
2022/06/14 03:56:55;;;;;;;;;;;10.10;99.90;;;;;;5046038;28;19917;-79
2022/06/14 03:59:27;;;;;;;;;;;10.10;99.90;;;;;;5013382;28;19972;-80
2022/06/14 04:02:11;;;;;;;;;;;10.10;99.90;;;;;;5027464;28;20314;-80
2022/06/14 04:04:58;;;;;;;;;;;10.10;99.90;;;;;;5027601;28;19928;-78
2022/06/14 04:07:41;;;;;;;;;;;10.10;99.90;;;;;;5027751;28;19916;-80
2022/06/14 04:10:15;;;;;;;;;;;10.10;99.90;;;;;;5018796;28;20008;-78
2022/06/14 04:13:04;;;;;;;;;;;10.10;99.90;;;;;;5046439;28;19921;-79
2022/06/14 04:15:49;;;;;;;;;;;10.20;99.90;;;;;;5004523;28;19924;-77
2022/06/14 04:18:38;;;;;;;;;;;10.20;99.90;;;;;;5014246;28;19963;-80
2022/06/14 04:21:12;;;;;;;;;;;10.30;99.90;;;;;;5032605;28;19931;-80
2022/06/14 04:23:57;;;;;;;;;;;10.40;99.90;;;;;;5039870;28;19927;-78
2022/06/14 04:26:27;;;;;;;;;;;10.40;99.90;;;;;;5002837;28;19924;-78
2022/06/14 04:29:01;;;;;;;;;;;10.50;99.90;;;;;;5047624;28;19923;-79
2022/06/14 04:31:30;;;;;;;;;;;10.60;99.90;;;;;;5002265;28;19924;-79
2022/06/14 04:33:55;;;;;;;;;;;10.60;99.90;;;;;;5005897;28;19921;-80
2022/06/14 04:36:23;;;;;;;;;;;10.80;99.90;;;;;;5028801;28;19923;-78
2022/06/14 04:39:09;;;;;;;;;;;10.90;99.90;;;;;;5016831;28;19921;-80
2022/06/14 04:41:38;;;;;;;;;;;11.00;99.90;;;;;;5047421;28;19917;-78
2022/06/14 04:44:13;;;;;;;;;;;11.10;99.90;;;;;;5018948;28;19925;-80
2022/06/14 04:46:44;;;;;;;;;;;11.10;99.90;;;;;;5051217;28;20007;-79
2022/06/14 04:49:10;;;;;;;;;;;11.30;99.90;;;;;;5007443;28;20444;-79
2022/06/14 04:51:35;;;;;;;;;;;11.40;99.90;;;;;;5024667;28;19925;-80
2022/06/14 04:54:11;;;;;;;;;;;11.50;99.90;;;;;;5033575;28;19925;-78
2022/06/14 04:56:49;;;;;;;;;;;11.60;99.90;;;;;;5003413;28;19924;-77
2022/06/14 04:59:25;;;;;;;;;;;11.70;99.90;;;;;;4997997;28;19996;-80
2022/06/14 05:01:53;;;;;;;;;;;11.80;99.90;;;;;;5022118;28;19917;-78
2022/06/14 05:04:25;;;;;;;;;;;11.90;99.90;;;;;;5019395;28;20795;-80
2022/06/14 05:06:56;;;;;;;;;;;12.00;99.90;;;;;;5015463;28;19992;-78
2022/06/14 05:09:28;;;;;;;;;;;12.10;99.90;;;;;;5003383;28;19917;-80
2022/06/14 05:12:12;;;;;;;;;;;12.10;99.90;;;;;;4998837;28;19928;-79
2022/06/14 05:14:41;;;;;;;;;;;12.20;99.90;;;;;;5028015;28;19943;-80
2022/06/14 05:17:07;;;;;;;;;;;12.30;99.90;;;;;;5014171;28;19921;-79
2022/06/14 05:19:32;;;;;;;;;;;12.40;99.90;;;;;;5028275;28;19924;-76
2022/06/14 05:22:01;;;;;;;;;;;12.40;99.90;;;;;;5026888;28;19921;-78
2022/06/14 05:24:27;;;;;;;;;;;12.50;99.90;;;;;;5027190;28;19917;-78
2022/06/14 05:27:05;;;;;;;;;;;12.50;99.90;;;;;;4990960;28;19917;-80
2022/06/14 05:29:43;;;;;;;;;;;12.50;99.90;;;;;;5019904;28;19921;-80
2022/06/14 05:32:29;;;;;;;;;;;12.60;99.90;;;;;;4993494;28;19924;-78
2022/06/14 05:34:54;;;;;;;;;;;12.60;99.90;;;;;;5018691;28;20012;-79
2022/06/14 05:37:26;;;;;;;;;;;12.70;99.90;;;;;;5023267;28;19924;-79
2022/06/14 05:40:08;;;;;;;;;;;12.80;99.90;;;;;;5030845;28;19917;-78
2022/06/14 05:42:39;;;;;;;;;;;12.90;99.90;;;;;;5055372;28;20291;-78
2022/06/14 05:45:06;;;;;;;;;;;13.00;99.90;;;;;;5021073;28;20031;-77
2022/06/14 05:47:37;;;;;;;;;;;13.10;99.90;;;;;;5024061;28;20318;-78
2022/06/14 05:50:10;;;;;;;;;;;13.20;99.90;;;;;;5028588;28;19924;-79
2022/06/14 05:52:40;;;;;;;;;;;13.30;99.90;;;;;;5026620;28;20351;-80
2022/06/14 05:55:05;;;;;;;;;;;13.30;99.90;;;;;;5025919;28;19925;-79
2022/06/14 05:57:35;;;;;;;;;;;13.30;99.90;;;;;;5030250;28;19917;-77
2022/06/14 06:00:06;;;;;;;;;;;13.40;99.90;;;;;;5020558;28;20350;-78
2022/06/14 06:02:38;;;;;;;;;;;13.40;99.90;;;;;;5020164;28;19968;-78
2022/06/14 06:05:12;;;;;;;;;;;13.40;99.90;;;;;;5048954;28;19917;-79
2022/06/14 06:07:47;;;;;;;;;;;13.40;99.90;;;;;;5033291;28;20381;-77
2022/06/14 06:10:15;;;;;;;;;;;13.40;99.90;;;;;;5034259;28;19965;-79
2022/06/14 06:12:46;;;;;;;;;;;13.40;99.90;;;;;;5045929;28;19917;-81
2022/06/14 06:15:15;;;;;;;;;;;13.50;99.90;;;;;;4996751;28;19917;-78
2022/06/14 06:17:53;;;;;;;;;;;13.60;99.90;;;;;;5025434;28;19921;-78
2022/06/14 06:20:22;;;;;;;;;;;13.70;99.90;;;;;;5058695;28;19923;-77
2022/06/14 06:22:51;;;;;;;;;;;13.80;99.90;;;;;;5013608;28;19922;-80
2022/06/14 06:25:24;;;;;;;;;;;13.90;99.90;;;;;;5025217;28;20008;-77
2022/06/14 06:27:50;;;;;;;;;;;14.00;99.90;;;;;;4998422;28;19984;-80
2022/06/14 06:30:19;;;;;;;;;;;14.10;99.90;;;;;;5022311;28;20373;-79
2022/06/14 06:32:45;;;;;;;;;;;14.20;99.90;;;;;;5048423;28;20366;-79
2022/06/14 06:35:12;;;;;;;;;;;14.20;99.90;;;;;;5018343;28;19963;-78
2022/06/14 06:37:46;;;;;;;;;;;14.20;99.90;;;;;;5035875;28;20342;-78
2022/06/14 06:40:19;;;;;;;;;;;14.30;99.90;;;;;;5030876;28;20000;-76
2022/06/14 06:42:51;;;;;;;;;;;14.40;99.90;;;;;;5018579;28;19988;-77
2022/06/14 06:45:40;;;;;;;;;;;14.50;99.90;;;;;;5005211;28;20316;-80
2022/06/14 06:48:18;;;;;;;;;;;14.70;99.90;;;;;;5005760;28;19983;-79
2022/06/14 06:50:52;;;;;;;;;;;14.90;99.90;;;;;;5033640;28;19928;-78
2022/06/14 06:53:21;;;;;;;;;;;15.00;99.90;;;;;;5017307;28;19921;-78
2022/06/14 06:55:59;;;;;;;;;;;15.10;99.90;;;;;;5020679;28;19929;-79
2022/06/14 06:58:28;;;;;;;;;;;15.10;99.90;;;;;;5029331;28;19967;-80
2022/06/14 07:00:57;;;;;;;;;;;15.20;99.90;;;;;;5023726;28;19960;-80
2022/06/14 07:03:41;;;;;;;;;;;15.20;99.90;;;;;;5033967;28;19971;-79
2022/06/14 07:06:10;;;;;;;;;;;15.30;99.90;;;;;;5017199;28;19921;-78
2022/06/14 07:08:49;;;;;;;;;;;15.40;99.90;;;;;;5037764;28;20011;-78
2022/06/14 07:11:23;;;;;;;;;;;15.40;99.90;;;;;;5051538;28;19929;-79
2022/06/14 07:13:53;;;;;;;;;;;15.50;99.90;;;;;;5048207;28;20059;-77
2022/06/14 07:16:24;;;;;;;;;;;15.50;99.90;;;;;;5018859;28;19918;-79
2022/06/14 07:18:56;;;;;;;;;;;15.60;99.90;;;;;;5006741;28;19917;-79
2022/06/14 07:21:25;;;;;;;;;;;15.70;99.90;;;;;;4995996;28;19987;-78
2022/06/14 07:24:02;;;;;;;;;;;15.80;99.90;;;;;;5020129;28;19917;-78
2022/06/14 07:26:47;;;;;;;;;;;15.90;99.90;;;;;;5014313;28;19921;-80
2022/06/14 07:29:18;;;;;;;;;;;16.00;99.90;;;;;;5011686;28;19924;-76
2022/06/14 07:32:06;;;;;;;;;;;16.10;99.90;;;;;;5011445;28;19969;-80
2022/06/14 07:34:32;;;;;;;;;;;16.20;99.90;;;;;;4994979;28;19941;-76
2022/06/14 07:37:16;;;;;;;;;;;16.40;99.90;;;;;;5025765;28;19924;-77
2022/06/14 07:39:45;;;;;;;;;;;16.40;99.90;;;;;;5025137;28;19968;-79
2022/06/14 07:42:19;;;;;;;;;;;16.60;99.90;;;;;;5016614;28;19921;-77
2022/06/14 07:44:47;;;;;;;;;;;16.70;99.90;;;;;;5031712;28;19917;-78
2022/06/14 07:47:23;;;;;;;;;;;16.70;99.90;;;;;;5033598;28;19940;-78
2022/06/14 07:49:55;;;;;;;;;;;16.80;99.90;;;;;;5010907;28;19963;-79
2022/06/14 07:52:42;;;;;;;;;;;16.80;99.90;;;;;;5022610;28;19928;-79
2022/06/14 07:55:12;;;;;;;;;;;16.90;99.90;;;;;;5057266;28;20020;-77
2022/06/14 07:57:41;;;;;;;;;;;16.80;99.90;;;;;;5010887;28;19923;-77
2022/06/14 08:02:53;;;;;;;;;;;16.80;99.90;;;;;;5015138;28;19923;-80
2022/06/14 08:05:21;;;;;;;;;;;16.80;99.90;;;;;;5010850;28;19972;-78
2022/06/14 08:07:49;;;;;;;;;;;17.00;99.90;;;;;;5012338;28;19971;-79
2022/06/14 08:10:18;;;;;;;;;;;17.10;99.90;;;;;;5018251;28;20336;-78
2022/06/14 08:13:01;;;;;;;;;;;17.30;99.90;;;;;;5032160;28;19967;-78
2022/06/14 08:15:27;;;;;;;;;;;17.30;99.90;;;;;;5015722;28;19924;-79
2022/06/14 08:18:01;;;;;;;;;;;17.30;99.90;;;;;;5027756;28;20285;-79
2022/06/14 08:20:30;;;;;;;;;;;17.40;99.90;;;;;;5014529;28;19921;-78
2022/06/14 08:22:58;;;;;;;;;;;17.50;99.90;;;;;;5015002;28;20000;-78
2022/06/14 08:25:28;;;;;;;;;;;17.60;99.90;;;;;;5027960;28;19917;-78
2022/06/14 08:28:06;;;;;;;;;;;17.80;99.90;;;;;;5027392;28;19964;-79
2022/06/14 08:30:55;;;;;;;;;;;17.80;99.90;;;;;;5066901;28;20278;-80
2022/06/14 08:33:26;;;;;;;;;;;17.70;99.90;;;;;;5027019;28;19917;-78
2022/06/14 08:35:55;;;;;;;;;;;17.50;99.90;;;;;;5022265;28;19916;-79
2022/06/14 08:38:30;;;;;;;;;;;17.40;99.90;;;;;;5050738;28;19952;-78
2022/06/14 08:41:15;;;;;;;;;;;17.70;99.90;;;;;;5034808;28;19917;-79
2022/06/14 08:43:42;;;;;;;;;;;18.10;99.90;;;;;;4973571;28;19999;-77
2022/06/14 08:46:20;;;;;;;;;;;18.20;99.90;;;;;;5016892;28;20290;-78
2022/06/14 08:49:06;;;;;;;;;;;18.20;99.90;;;;;;5024420;28;19925;-77
2022/06/14 08:51:33;;;;;;;;;;;18.10;99.90;;;;;;5021635;28;20315;-80
2022/06/14 08:54:17;;;;;;;;;;;18.00;99.90;;;;;;5034113;28;19925;-78
2022/06/14 08:56:43;;;;;;;;;;;18.00;99.90;;;;;;5003149;28;19968;-78
2022/06/14 08:59:35;;;;;;;;;;;18.00;99.90;;;;;;4998358;28;19921;-77
2022/06/14 09:02:18;;;;;;;;;;;18.20;99.90;;;;;;5014490;28;20301;-80
2022/06/14 09:05:01;;;;;;;;;;;18.60;99.90;;;;;;5010152;28;20425;-79
2022/06/14 09:07:28;;;;;;;;;;;18.90;99.90;;;;;;5028609;28;20337;-77
2022/06/14 09:10:29;;;;;;;;;;;18.70;99.90;;;;;;5049298;28;19917;-79
2022/06/14 09:12:54;;;;;;;;;;;18.60;99.90;;;;;;4990148;28;19944;-78
2022/06/14 09:15:39;;;;;;;;;;;18.30;99.90;;;;;;5009231;28;20363;-77
2022/06/14 09:18:10;;;;;;;;;;;18.10;99.90;;;;;;5066410;28;20374;-78
2022/06/14 09:20:55;;;;;;;;;;;18.10;99.90;;;;;;5056195;28;19968;-78
2022/06/14 09:23:21;;;;;;;;;;;18.40;99.90;;;;;;5029878;28;19952;-78
2022/06/14 09:25:57;;;;;;;;;;;18.80;99.90;;;;;;5038416;28;19967;-77
2022/06/14 09:28:29;;;;;;;;;;;19.00;99.90;;;;;;5030622;28;19918;-79
2022/06/14 09:31:08;;;;;;;;;;;19.20;99.90;;;;;;5013831;28;20367;-79
2022/06/14 09:33:36;;;;;;;;;;;19.30;99.90;;;;;;5051739;28;19917;-78
2022/06/14 09:36:21;;;;;;;;;;;19.20;99.90;;;;;;5033715;28;19917;-77
2022/06/14 09:39:05;;;;;;;;;;;19.10;99.90;;;;;;5033134;28;19923;-78
2022/06/14 09:41:50;;;;;;;;;;;19.00;99.90;;;;;;5028551;28;19924;-76
2022/06/14 09:44:33;;;;;;;;;;;18.90;99.90;;;;;;5022788;28;19917;-78
2022/06/14 09:47:17;;;;;;;;;;;18.80;99.90;;;;;;5014598;28;19921;-78
2022/06/14 09:49:52;;;;;;;;;;;18.80;99.90;;;;;;5017068;28;19924;-77
2022/06/14 09:52:36;;;;;;;;;;;18.80;99.90;;;;;;5046535;28;20319;-78
2022/06/14 09:55:02;;;;;;;;;;;18.80;99.90;;;;;;5030937;28;19972;-79
2022/06/14 09:57:46;;;;;;;;;;;18.90;99.90;;;;;;5025374;28;19921;-79
2022/06/14 10:00:21;;;;;;;;;;;18.90;99.90;;;;;;5042976;28;19944;-77
2022/06/14 10:03:02;;;;;;;;;;;19.00;99.90;;;;;;5032460;28;19952;-79
2022/06/14 10:05:46;;;;;;;;;;;19.00;99.90;;;;;;5032574;28;19971;-80
2022/06/14 10:08:32;;;;;;;;;;;18.80;99.90;;;;;;5034274;28;19917;-80
2022/06/14 10:10:57;;;;;;;;;;;18.70;99.90;;;;;;4999815;28;19925;-79
2022/06/14 10:13:45;;;;;;;;;;;18.60;99.90;;;;;;5045531;28;19940;-78
2022/06/14 10:16:13;;;;;;;;;;;18.50;99.90;;;;;;5027625;28;19996;-77
2022/06/14 10:18:44;;;;;;;;;;;18.30;99.90;;;;;;5022438;28;19921;-78
2022/06/14 10:21:14;;;;;;;;;;;18.20;99.90;;;;;;5049043;28;19917;-80
2022/06/14 10:23:58;;;;;;;;;;;18.10;99.90;;;;;;5021247;28;19924;-78
2022/06/14 10:29:39;;;;;;;;;;;17.90;99.90;;;;;;5013051;28;19917;-79
2022/06/14 10:32:14;;;;;;;;;;;17.90;99.90;;;;;;5023589;28;20384;-77
2022/06/14 10:34:49;;;;;;;;;;;17.90;99.90;;;;;;5017976;28;19916;-78
2022/06/14 10:37:24;;;;;;;;;;;17.90;99.90;;;;;;5019504;28;20329;-77
2022/06/14 10:40:22;;;;;;;;;;;18.00;99.90;;;;;;4996183;28;19924;-78
2022/06/14 10:43:06;;;;;;;;;;;18.00;99.90;;;;;;4987740;28;20325;-79
2022/06/14 10:45:35;;;;;;;;;;;18.10;99.90;;;;;;5012242;28;19924;-77
2022/06/14 10:48:00;;;;;;;;;;;18.00;99.90;;;;;;5024183;28;19921;-78
2022/06/14 10:50:32;;;;;;;;;;;17.90;99.90;;;;;;5016406;28;19923;-76
2022/06/14 10:53:12;;;;;;;;;;;17.80;99.90;;;;;;5029165;28;20012;-77
2022/06/14 10:55:48;;;;;;;;;;;17.70;99.90;;;;;;5018979;28;19925;-79
2022/06/14 10:58:13;;;;;;;;;;;17.60;99.90;;;;;;4999074;28;20371;-78
2022/06/14 11:00:48;;;;;;;;;;;17.50;99.90;;;;;;5012052;28;19918;-78
2022/06/14 11:03:26;;;;;;;;;;;17.40;99.90;;;;;;5031486;28;20417;-78
2022/06/14 11:06:10;;;;;;;;;;;17.40;99.90;;;;;;5050936;28;19917;-77
2022/06/14 11:08:51;;;;;;;;;;;17.40;99.90;;;;;;5014691;28;19970;-78
2022/06/14 11:11:35;;;;;;;;;;;17.40;99.90;;;;;;5018577;28;20291;-79
2022/06/14 11:14:22;;;;;;;;;;;17.40;99.90;;;;;;5030326;28;19964;-78
2022/06/14 11:16:57;;;;;;;;;;;17.50;99.90;;;;;;5044075;28;19928;-78
2022/06/14 11:19:30;;;;;;;;;;;17.60;99.90;;;;;;5027474;28;19917;-77
2022/06/14 11:22:07;;;;;;;;;;;17.60;99.90;;;;;;5048389;28;19917;-78
2022/06/14 11:24:38;;;;;;;;;;;17.80;99.90;;;;;;5028813;28;19924;-78
2022/06/14 11:27:19;;;;;;;;;;;17.90;99.90;;;;;;5028156;28;19917;-77
2022/06/14 11:29:53;;;;;;;;;;;18.10;99.90;;;;;;5062730;28;19917;-79
2022/06/14 11:32:30;;;;;;;;;;;18.20;99.90;;;;;;5031394;28;20417;-77
2022/06/14 11:35:08;;;;;;;;;;;18.30;99.90;;;;;;5007516;28;19948;-80
2022/06/14 11:37:34;;;;;;;;;;;18.50;99.90;;;;;;5012282;28;19921;-78
2022/06/14 11:39:59;;;;;;;;;;;18.60;99.90;;;;;;5024296;28;19924;-78
2022/06/14 11:42:25;;;;;;;;;;;18.80;99.90;;;;;;5025083;28;20338;-77
2022/06/14 11:44:59;;;;;;;;;;;19.00;99.90;;;;;;5051942;28;19917;-77
2022/06/14 11:47:28;;;;;;;;;;;19.10;99.90;;;;;;5011127;28;19925;-77
2022/06/14 11:49:59;;;;;;;;;;;19.40;99.90;;;;;;5020595;28;19966;-77
2022/06/14 11:52:28;;;;;;;;;;;19.70;99.90;;;;;;5012507;28;20341;-79
2022/06/14 11:55:03;;;;;;;;;;;19.80;99.90;;;;;;5013736;28;19961;-79
2022/06/14 11:57:35;;;;;;;;;;;20.00;99.90;;;;;;5010973;28;19924;-78
2022/06/14 12:00:06;;;;;;;;;;;20.10;99.90;;;;;;5031856;28;19917;-79
2022/06/14 12:02:44;;;;;;;;;;;20.30;99.90;;;;;;5013588;28;19917;-78
2022/06/14 12:05:33;;;;;;;;;;;20.40;99.90;;;;;;5007038;28;19952;-78
2022/06/14 12:08:01;;;;;;;;;;;20.70;99.90;;;;;;5002644;28;19925;-79
2022/06/14 12:10:30;;;;;;;;;;;20.80;99.90;;;;;;5036355;28;19954;-78
2022/06/14 12:13:15;;;;;;;;;;;21.10;99.90;;;;;;5063282;28;19917;-77
2022/06/14 12:15:52;;;;;;;;;;;21.20;99.90;;;;;;5019526;28;20444;-79
2022/06/14 12:18:20;;;;;;;;;;;21.50;99.90;;;;;;5028564;28;19920;-76
2022/06/14 12:21:01;;;;;;;;;;;21.50;99.90;;;;;;5030515;28;19921;-78
2022/06/14 12:23:30;;;;;;;;;;;21.50;99.90;;;;;;5024335;28;19925;-79
2022/06/14 12:29:02;;;;;;;;;;;21.40;99.90;;;;;;5010692;28;19952;-79
2022/06/14 12:31:33;;;;;;;;;;;21.70;99.90;;;;;;5028372;28;19925;-79
2022/06/14 12:34:05;;;;;;;;;;;21.80;99.90;;;;;;5045774;28;19995;-77
2022/06/14 12:36:30;;;;;;;;;;;21.90;99.90;;;;;;5015364;28;20251;-77
2022/06/14 12:38:57;;;;;;;;;;;22.00;99.90;;;;;;5020992;28;19924;-78
2022/06/14 12:41:32;;;;;;;;;;;21.70;99.90;;;;;;5030769;28;19999;-80
2022/06/14 12:44:16;;;;;;;;;;;21.50;99.90;;;;;;5014566;28;19933;-79
2022/06/14 12:46:44;;;;;;;;;;;21.60;99.90;;;;;;5000170;28;19917;-79
2022/06/14 12:49:19;;;;;;;;;;;21.70;99.90;;;;;;5014762;28;20472;-79
2022/06/14 12:51:49;;;;;;;;;;;21.90;99.90;;;;;;5016338;28;19921;-79
2022/06/14 12:54:28;;;;;;;;;;;22.00;99.90;;;;;;5017220;28;19921;-77
2022/06/14 12:56:53;;;;;;;;;;;22.20;99.90;;;;;;5004707;28;19921;-78
2022/06/14 12:59:29;;;;;;;;;;;22.20;96.70;;;;;;5019046;28;19917;-78
2022/06/14 13:02:00;;;;;;;;;;;22.40;99.60;;;;;;4998220;28;19928;-78
2022/06/14 13:04:33;;;;;;;;;;;22.80;99.90;;;;;;5026274;28;20404;-78
2022/06/14 13:07:17;;;;;;;;;;;22.90;99.80;;;;;;5033713;28;20012;-78
2022/06/14 13:09:50;;;;;;;;;;;22.60;95.30;;;;;;5019696;28;19967;-79
2022/06/14 13:12:34;;;;;;;;;;;22.10;94.50;;;;;;5033792;28;20004;-79
2022/06/14 13:15:00;;;;;;;;;;;21.90;96.70;;;;;;5032929;28;19967;-77
2022/06/14 13:17:40;;;;;;;;;;;21.90;97.50;;;;;;5033770;28;19932;-76
2022/06/14 13:20:20;;;;;;;;;;;21.90;98.60;;;;;;5019810;28;20461;-78
2022/06/14 13:23:04;;;;;;;;;;;21.70;96.40;;;;;;5020060;28;19921;-77
2022/06/14 13:25:48;;;;;;;;;;;21.50;97.40;;;;;;5011166;28;19970;-78
2022/06/14 13:28:32;;;;;;;;;;;21.00;97.60;;;;;;5034711;28;19917;-78
2022/06/14 13:31:13;;;;;;;;;;;20.40;99.20;;;;;;5038074;28;20364;-78
2022/06/14 13:33:54;;;;;;;;;;;20.00;99.90;;;;;;5025643;28;19956;-79
2022/06/14 13:36:25;;;;;;;;;;;19.80;99.90;;;;;;5027165;28;20393;-76
2022/06/14 13:39:04;;;;;;;;;;;19.60;99.90;;;;;;5016589;28;19917;-78
2022/06/14 13:42:02;;;;;;;;;;;19.60;99.90;;;;;;5016862;28;19917;-77
2022/06/14 13:44:47;;;;;;;;;;;19.60;99.90;;;;;;5026041;28;19971;-79
2022/06/14 13:47:26;;;;;;;;;;;19.70;99.90;;;;;;5020181;28;19924;-78
2022/06/14 13:49:58;;;;;;;;;;;19.70;99.90;;;;;;5008630;28;20008;-78
2022/06/14 13:52:33;;;;;;;;;;;19.80;99.90;;;;;;5046307;28;20000;-79
2022/06/14 13:55:04;;;;;;;;;;;19.80;99.90;;;;;;5041851;28;20390;-77
2022/06/14 13:57:33;;;;;;;;;;;19.90;99.90;;;;;;5026474;28;19917;-77
2022/06/14 14:00:08;;;;;;;;;;;19.90;99.90;;;;;;5042550;28;19921;-77
2022/06/14 14:02:55;;;;;;;;;;;19.90;99.90;;;;;;5013363;28;19917;-79
2022/06/14 14:05:31;;;;;;;;;;;20.00;99.90;;;;;;5033221;28;19923;-78
2022/06/14 14:08:02;;;;;;;;;;;20.10;99.90;;;;;;5031986;28;20358;-78
2022/06/14 14:10:34;;;;;;;;;;;20.30;99.90;;;;;;5021222;28;19928;-77
2022/06/14 14:13:04;;;;;;;;;;;20.40;99.90;;;;;;5026570;28;19936;-78
2022/06/14 14:15:36;;;;;;;;;;;20.40;99.10;;;;;;5022209;28;20378;-78
2022/06/14 14:18:12;;;;;;;;;;;20.50;99.90;;;;;;5028445;28;19929;-76
2022/06/14 14:20:38;;;;;;;;;;;20.80;99.50;;;;;;5012583;28;19964;-78
2022/06/14 14:23:13;;;;;;;;;;;20.90;99.70;;;;;;5025719;28;19956;-78
2022/06/14 14:25:51;;;;;;;;;;;21.10;99.60;;;;;;5012870;28;19918;-77
2022/06/14 14:28:25;;;;;;;;;;;21.30;99.00;;;;;;5026048;28;19940;-79
2022/06/14 14:31:29;;;;;;;;;;;21.60;97.60;;;;;;5012148;28;19928;-78
2022/06/14 14:33:58;;;;;;;;;;;21.60;97.40;;;;;;4987817;28;19918;-79
2022/06/14 14:36:42;;;;;;;;;;;21.60;97.40;;;;;;4988978;28;19918;-77
2022/06/14 14:39:07;;;;;;;;;;;21.70;97.50;;;;;;5006173;28;20003;-78
2022/06/14 14:41:43;;;;;;;;;;;21.70;98.70;;;;;;5030444;28;19992;-78
2022/06/14 14:44:28;;;;;;;;;;;21.70;99.70;;;;;;5019722;28;20289;-79
2022/06/14 14:47:03;;;;;;;;;;;21.70;99.00;;;;;;4996890;28;19924;-79
2022/06/14 14:49:38;;;;;;;;;;;21.80;99.60;;;;;;5016494;28;19917;-78
2022/06/14 14:52:24;;;;;;;;;;;21.90;97.50;;;;;;5011779;28;20378;-77
2022/06/14 14:54:53;;;;;;;;;;;21.90;97.30;;;;;;5044465;28;19921;-80
2022/06/14 14:57:27;;;;;;;;;;;22.20;97.30;;;;;;5025360;28;20008;-77
2022/06/14 14:59:53;;;;;;;;;;;22.30;95.80;;;;;;5064710;28;19991;-77
2022/06/14 15:05:25;;;;;;;;;;;22.40;94.70;;;;;;5018598;28;19957;-79
2022/06/14 15:07:53;;;;;;;;;;;22.20;96.40;;;;;;5026854;28;20374;-79
2022/06/14 15:10:24;;;;;;;;;;;22.20;97.50;;;;;;5056786;28;19917;-78
2022/06/14 15:12:52;;;;;;;;;;;22.40;97.10;;;;;;5011917;28;19921;-78